Paradise, Indiana
Current Conditions -  °F | °C
As of 2:54 AM on Saturday 20 Dec 2014 (Local Time) from KEVV Reporting Station
Overcast Overcast  
Wind Chill: 27°   Ceiling: 6000
Heat Index: 32°   Visibility: 7mi
Dew Point: 26°   Wind: 5mph
Humidity: 79%   Direction: 60°ENE
Pressure: 30.29"   Gusts: NA
Location:  37.9629°N, 87.3632°W
Report Text: KEVV 200854Z AUTO 06004KT 7SM FEW044 OVC060 00/M03 A3029 RMK AO2 SNB44E53 SLP261 P0000 60000 T00001033 56002
Loading
Personal Weather Stations






























Interactive Weather Map New forecast layout! Learn more

10-Day Weather Forecast

Advertisements
Track Severe Weather on mobile